createdAt,value
2023-04-25T00:00:26.189Z,6.17
2023-04-25T00:02:54.207Z,6.14
2023-04-25T00:05:24.336Z,6.09
2023-04-25T00:07:52.470Z,6.04
2023-04-25T00:10:21.177Z,6.01
2023-04-25T00:12:49.713Z,5.99
2023-04-25T00:15:17.549Z,5.94
2023-04-25T00:17:46.554Z,5.92
2023-04-25T00:20:14.633Z,5.91
2023-04-25T00:22:43.877Z,5.89
2023-04-25T00:25:11.721Z,5.86
2023-04-25T00:27:40.107Z,5.85
2023-04-25T00:30:09.160Z,5.82
2023-04-25T00:32:36.967Z,5.82
2023-04-25T00:35:05.570Z,5.83
2023-04-25T00:37:33.527Z,5.83
2023-04-25T00:40:03.333Z,5.85
2023-04-25T00:42:32.983Z,5.85
2023-04-25T00:45:01.350Z,5.86
2023-04-25T00:47:30.823Z,5.85
2023-04-25T00:49:58.616Z,5.85
2023-04-25T00:52:26.492Z,5.85
2023-04-25T00:54:54.373Z,5.84
2023-04-25T00:57:23.605Z,5.83
2023-04-25T00:59:53.690Z,5.82
2023-04-25T01:02:22.595Z,5.82
2023-04-25T01:04:50.822Z,5.81
2023-04-25T01:07:18.760Z,5.81
2023-04-25T01:09:46.577Z,5.81
2023-04-25T01:12:15.625Z,5.81
2023-04-25T01:14:44.782Z,5.81
2023-04-25T01:17:13.258Z,5.80
2023-04-25T01:19:41.395Z,5.79
2023-04-25T01:22:11.752Z,5.75
2023-04-25T01:24:40.036Z,5.72
2023-04-25T01:27:08.591Z,5.68
2023-04-25T01:29:38.915Z,5.64
2023-04-25T01:32:08.121Z,5.61
2023-04-25T01:34:36.227Z,5.57
2023-04-25T01:37:04.028Z,5.54
2023-04-25T01:39:33.194Z,5.49
2023-04-25T01:42:02.522Z,5.47
2023-04-25T01:44:31.763Z,5.43
2023-04-25T01:46:59.591Z,5.39
2023-04-25T01:49:27.579Z,5.36
2023-04-25T01:51:55.607Z,5.34
2023-04-25T01:54:23.620Z,5.32
2023-04-25T01:56:53.853Z,5.28
2023-04-25T01:59:23.352Z,5.24
2023-04-25T02:02:05.802Z,5.21
2023-04-25T02:04:35.518Z,5.19
2023-04-25T02:07:05.157Z,5.16
2023-04-25T02:09:49.657Z,5.14
2023-04-25T02:12:20.508Z,5.13
2023-04-25T02:15:11.783Z,5.11
2023-04-25T02:17:53.560Z,5.09
2023-04-25T02:20:22.680Z,5.07
2023-04-25T02:22:50.543Z,5.04
2023-04-25T02:25:20.879Z,5.02
2023-04-25T02:27:51.455Z,4.96
2023-04-25T02:30:19.554Z,4.93
2023-04-25T02:32:47.788Z,4.90
2023-04-25T02:35:15.809Z,4.86
2023-04-25T02:37:44.463Z,4.81
2023-04-25T02:40:12.701Z,4.77
2023-04-25T02:42:40.477Z,4.75
2023-04-25T02:45:11.007Z,4.74
2023-04-25T02:47:38.791Z,4.70
2023-04-25T02:50:08.329Z,4.68
2023-04-25T02:52:36.644Z,4.67
2023-04-25T02:55:14.803Z,4.65
2023-04-25T02:57:43.683Z,4.64
2023-04-25T03:00:16.971Z,4.64
2023-04-25T03:02:44.866Z,4.62
2023-04-25T03:05:12.723Z,4.62
2023-04-25T03:07:41.343Z,4.61
2023-04-25T03:10:12.358Z,4.61
2023-04-25T03:12:40.278Z,4.61
2023-04-25T03:15:08.755Z,4.63
2023-04-25T03:17:38.813Z,4.60
2023-04-25T03:20:09.420Z,4.58
2023-04-25T03:22:37.496Z,4.56
2023-04-25T03:25:06.269Z,4.53
2023-04-25T03:27:34.136Z,4.51
2023-04-25T03:30:01.971Z,4.48
2023-04-25T03:32:30.469Z,4.45
2023-04-25T03:34:59.717Z,4.43
2023-04-25T03:37:28.783Z,4.43
2023-04-25T03:39:56.563Z,4.45
2023-04-25T03:42:27.495Z,4.43
2023-04-25T03:44:55.294Z,4.44
2023-04-25T03:47:23.230Z,4.46
2023-04-25T03:49:52.785Z,4.47
2023-04-25T03:52:24.662Z,4.50
2023-04-25T03:54:52.455Z,4.51
2023-04-25T03:57:22.010Z,4.53
2023-04-25T03:59:49.841Z,4.53
2023-04-25T04:02:17.862Z,4.55
2023-04-25T04:04:46.667Z,4.57
2023-04-25T04:07:15.130Z,4.60
2023-04-25T04:09:46.968Z,4.62
2023-04-25T04:12:20.857Z,4.63
2023-04-25T04:14:48.681Z,4.63
2023-04-25T04:17:16.473Z,4.64
2023-04-25T04:19:44.273Z,4.66
2023-04-25T04:22:19.494Z,4.67
2023-04-25T04:24:50.971Z,4.65
2023-04-25T04:27:24.754Z,4.66
2023-04-25T04:30:08.131Z,4.67
2023-04-25T04:32:40.421Z,4.70
2023-04-25T04:35:10.026Z,4.70
2023-04-25T04:37:38.334Z,4.74
2023-04-25T04:40:11.024Z,4.75
2023-04-25T04:42:47.257Z,4.76
2023-04-25T04:45:39.100Z,4.76
2023-04-25T04:48:35.107Z,4.79
2023-04-25T04:51:23.194Z,4.80
2023-04-25T04:54:06.236Z,4.83
2023-04-25T04:56:54.500Z,4.84
2023-04-25T04:59:40.936Z,4.85
2023-04-25T05:02:19.711Z,4.89
2023-04-25T05:05:06.667Z,4.91
2023-04-25T05:07:50.842Z,4.93
2023-04-25T05:10:45.748Z,4.94
2023-04-25T05:13:25.568Z,4.95
2023-04-25T05:15:53.286Z,4.96
2023-04-25T05:18:32.478Z,4.95
2023-04-25T05:21:18.715Z,4.97
2023-04-25T05:24:02.303Z,4.99
2023-04-25T05:26:48.734Z,5.00
2023-04-25T05:29:42.936Z,5.02
2023-04-25T05:32:39.739Z,5.03
2023-04-25T05:35:08.255Z,5.06
2023-04-25T05:37:43.546Z,5.07
2023-04-25T05:40:13.662Z,5.11
2023-04-25T05:43:11.917Z,5.15
2023-04-25T05:45:53.354Z,5.19
2023-04-25T05:48:29.897Z,5.24
2023-04-25T05:51:06.827Z,5.28
2023-04-25T05:53:54.923Z,5.34
2023-04-25T05:56:23.159Z,5.37
2023-04-25T05:58:53.716Z,5.40
2023-04-25T06:01:24.232Z,5.44
2023-04-25T06:03:53.872Z,5.47
2023-04-25T06:06:22.090Z,5.54
2023-04-25T06:08:49.977Z,5.60
2023-04-25T06:11:17.921Z,5.66
2023-04-25T06:13:45.690Z,5.72
2023-04-25T06:16:14.218Z,5.77
2023-04-25T06:18:43.467Z,5.83
2023-04-25T06:21:11.275Z,5.90
2023-04-25T06:23:39.119Z,6.00
2023-04-25T06:26:09.260Z,6.08
2023-04-25T06:28:39.778Z,6.16
2023-04-25T06:31:07.588Z,6.24
2023-04-25T06:33:35.433Z,6.29
2023-04-25T06:36:06.204Z,6.43
2023-04-25T06:38:35.773Z,6.58
2023-04-25T06:41:03.709Z,6.67
2023-04-25T06:43:35.322Z,6.76
2023-04-25T06:46:23.325Z,6.83
2023-04-25T06:48:52.279Z,6.90
2023-04-25T06:51:24.301Z,6.98
2023-04-25T06:53:54.748Z,7.03
2023-04-25T06:56:35.168Z,7.11
2023-04-25T06:59:29.001Z,7.18
2023-04-25T07:01:56.830Z,7.23
2023-04-25T07:04:27.410Z,7.29
2023-04-25T07:07:02.107Z,7.36
2023-04-25T07:09:51.046Z,7.42
2023-04-25T07:12:18.870Z,7.49
2023-04-25T07:14:46.788Z,7.53
2023-04-25T07:17:14.741Z,7.60
2023-04-25T07:19:42.934Z,7.65
2023-04-25T07:22:12.130Z,7.69
2023-04-25T07:24:42.459Z,7.75
2023-04-25T07:27:12.913Z,7.79
2023-04-25T07:29:57.389Z,8.27
2023-04-25T07:32:25.969Z,8.57
2023-04-25T07:34:53.931Z,8.69
2023-04-25T07:37:23.133Z,8.75
2023-04-25T07:40:02.174Z,8.76
2023-04-25T07:42:30.001Z,8.83
2023-04-25T07:44:58.277Z,8.86
2023-04-25T07:47:26.538Z,8.85
2023-04-25T07:49:55.217Z,8.99
2023-04-25T07:52:24.545Z,9.03
2023-04-25T07:54:59.595Z,9.01
2023-04-25T07:57:35.679Z,8.99
2023-04-25T08:00:06.513Z,9.01
2023-04-25T08:02:41.695Z,9.13
2023-04-25T08:05:16.382Z,9.23
2023-04-25T08:07:53.121Z,9.56
2023-04-25T08:10:21.612Z,9.65
2023-04-25T08:12:50.145Z,9.80
2023-04-25T08:15:17.944Z,9.91
2023-04-25T08:17:46.489Z,10.18
2023-04-25T08:20:14.717Z,10.47
2023-04-25T08:22:42.932Z,10.96
2023-04-25T08:25:24.950Z,11.14
2023-04-25T08:27:52.849Z,10.90
2023-04-25T08:30:23.027Z,10.24
2023-04-25T08:32:52.292Z,10.03
2023-04-25T08:35:28.708Z,9.91
2023-04-25T08:37:58.217Z,9.89
2023-04-25T08:40:31.158Z,9.86
2023-04-25T08:43:05.587Z,9.77
2023-04-25T08:45:34.337Z,9.71
2023-04-25T08:48:04.033Z,9.73
2023-04-25T08:50:32.427Z,9.78
2023-04-25T08:53:06.088Z,9.81
2023-04-25T08:55:35.897Z,10.21
2023-04-25T08:58:04.332Z,10.60
2023-04-25T09:00:32.588Z,11.14
2023-04-25T09:03:01.265Z,11.80
2023-04-25T09:05:34.296Z,12.46
2023-04-25T09:08:02.847Z,13.14
2023-04-25T09:13:09.829Z,13.95
2023-04-25T09:15:59.638Z,14.50
2023-04-25T09:18:59.690Z,14.92
2023-04-25T09:21:31.809Z,15.17
2023-04-25T09:24:00.736Z,15.20
2023-04-25T09:26:28.813Z,14.94
2023-04-25T09:29:08.791Z,14.59
2023-04-25T09:31:40.143Z,13.99
2023-04-25T09:34:12.970Z,13.73
2023-04-25T09:36:47.436Z,13.76
2023-04-25T09:39:40.156Z,13.70
2023-04-25T09:42:15.768Z,13.63
2023-04-25T09:44:46.449Z,13.23
2023-04-25T09:47:16.593Z,12.90
2023-04-25T09:49:46.506Z,12.36
2023-04-25T09:52:17.681Z,11.92
2023-04-25T09:54:55.160Z,11.83
2023-04-25T09:57:30.378Z,11.74
2023-04-25T10:00:09.999Z,11.58
2023-04-25T10:02:45.010Z,11.61
2023-04-25T10:05:21.474Z,11.41
2023-04-25T10:07:49.432Z,11.64
2023-04-25T10:10:19.540Z,12.01
2023-04-25T10:12:47.538Z,12.26
2023-04-25T10:15:17.314Z,13.06
2023-04-25T10:17:45.930Z,13.22
2023-04-25T10:20:14.751Z,13.42
2023-04-25T10:22:44.659Z,13.92
2023-04-25T10:25:13.276Z,14.21
2023-04-25T10:27:41.694Z,14.23
2023-04-25T10:30:12.435Z,14.48
2023-04-25T10:32:41.637Z,14.92
2023-04-25T10:35:13.719Z,15.12
2023-04-25T10:37:58.956Z,15.30
2023-04-25T10:40:26.990Z,15.61
2023-04-25T10:42:55.406Z,15.89
2023-04-25T10:45:23.301Z,15.99
2023-04-25T10:47:52.469Z,15.90
2023-04-25T10:50:20.256Z,15.72
2023-04-25T10:52:48.015Z,15.99
2023-04-25T10:55:16.141Z,16.13
2023-04-25T10:57:47.126Z,16.28
2023-04-25T11:00:17.096Z,16.41
2023-04-25T11:02:48.070Z,17.13
2023-04-25T11:05:30.085Z,17.06
2023-04-25T11:08:07.158Z,16.90
2023-04-25T11:10:37.275Z,16.45
2023-04-25T11:13:05.793Z,16.12
2023-04-25T11:15:34.343Z,15.66
2023-04-25T11:18:03.164Z,15.13
2023-04-25T11:20:32.346Z,14.52
2023-04-25T11:23:01.548Z,14.49
2023-04-25T11:25:31.261Z,14.10
2023-04-25T11:28:02.211Z,13.32
2023-04-25T11:30:31.531Z,13.38
2023-04-25T11:32:59.899Z,13.36
2023-04-25T11:35:27.859Z,13.20
2023-04-25T11:37:57.571Z,13.23
2023-04-25T11:40:25.623Z,13.34
2023-04-25T11:42:55.276Z,13.42
2023-04-25T11:45:25.179Z,13.16
2023-04-25T11:47:54.145Z,13.15
2023-04-25T11:50:22.027Z,13.30
2023-04-25T11:52:51.178Z,13.26
2023-04-25T11:55:21.905Z,13.62
2023-04-25T11:57:51.473Z,14.16
2023-04-25T12:00:21.381Z,14.56
2023-04-25T12:02:53.435Z,14.92
2023-04-25T12:05:32.182Z,15.22
2023-04-25T12:08:12.741Z,15.33
2023-04-25T12:10:43.901Z,15.86
2023-04-25T12:13:22.560Z,16.19
2023-04-25T12:15:50.790Z,15.95
2023-04-25T12:18:21.824Z,15.55
2023-04-25T12:20:49.437Z,15.73
2023-04-25T12:23:17.284Z,16.15
2023-04-25T12:25:48.080Z,16.51
2023-04-25T12:28:16.427Z,16.19
2023-04-25T12:30:58.468Z,16.23
2023-04-25T12:33:27.077Z,16.29
2023-04-25T12:35:54.973Z,15.98
2023-04-25T12:38:26.695Z,15.92
2023-04-25T12:40:56.124Z,15.93
2023-04-25T12:43:24.079Z,15.95
2023-04-25T12:45:52.459Z,15.97
2023-04-25T12:48:20.678Z,16.21
2023-04-25T12:50:50.135Z,16.19
2023-04-25T12:53:19.000Z,16.21
2023-04-25T12:55:47.996Z,16.28
2023-04-25T12:58:18.381Z,16.63
2023-04-25T13:00:47.151Z,17.06
2023-04-25T13:03:15.199Z,17.21
2023-04-25T13:05:44.100Z,17.70
2023-04-25T13:08:12.399Z,17.36
2023-04-25T13:10:40.524Z,17.59
2023-04-25T13:13:08.431Z,17.26
2023-04-25T13:15:37.592Z,17.04
2023-04-25T13:18:06.487Z,17.04
2023-04-25T13:20:34.407Z,16.82
2023-04-25T13:23:02.941Z,16.50
2023-04-25T13:25:30.952Z,16.57
2023-04-25T13:27:58.722Z,16.54
2023-04-25T13:30:26.759Z,16.50
2023-04-25T13:32:57.800Z,16.64
2023-04-25T13:35:25.636Z,16.68
2023-04-25T13:37:53.428Z,16.35
2023-04-25T13:40:22.817Z,16.09
2023-04-25T13:42:52.024Z,15.60
2023-04-25T13:45:20.122Z,15.54
2023-04-25T13:47:48.017Z,15.01
2023-04-25T13:50:17.245Z,14.77
2023-04-25T13:52:45.980Z,14.71
2023-04-25T13:55:13.786Z,15.12
2023-04-25T13:57:41.577Z,15.24
2023-04-25T14:00:10.942Z,15.83
2023-04-25T14:02:38.927Z,16.22
2023-04-25T14:05:07.857Z,16.02
2023-04-25T14:07:37.370Z,15.70
2023-04-25T14:10:06.886Z,15.28
2023-04-25T14:12:34.911Z,15.27
2023-04-25T14:15:02.745Z,15.06
2023-04-25T14:17:30.927Z,14.90
2023-04-25T14:19:58.766Z,14.78
2023-04-25T14:22:26.841Z,14.50
2023-04-25T14:24:56.007Z,14.65
2023-04-25T14:27:23.763Z,14.58
2023-04-25T14:29:51.605Z,14.74
2023-04-25T14:32:19.431Z,14.95
2023-04-25T14:34:47.207Z,15.54
2023-04-25T14:37:15.050Z,15.76
2023-04-25T14:39:44.153Z,15.38
2023-04-25T14:42:14.443Z,15.66
2023-04-25T14:44:42.323Z,15.62
2023-04-25T14:47:10.259Z,15.94
2023-04-25T14:49:38.103Z,16.34
2023-04-25T14:52:06.089Z,15.96
2023-04-25T14:54:34.000Z,15.57
2023-04-25T14:57:02.203Z,15.46
2023-04-25T14:59:31.340Z,15.52
2023-04-25T15:01:59.915Z,14.95
2023-04-25T15:04:27.987Z,15.03
2023-04-25T15:06:56.436Z,14.98
2023-04-25T15:09:24.998Z,14.97
2023-04-25T15:11:53.205Z,15.06
2023-04-25T15:14:21.010Z,14.92
2023-04-25T15:16:50.217Z,14.67
2023-04-25T15:19:18.074Z,14.83
2023-04-25T15:21:45.979Z,14.81
2023-04-25T15:24:16.029Z,15.26
2023-04-25T15:26:43.833Z,15.23
2023-04-25T15:29:11.644Z,15.28
2023-04-25T15:31:39.533Z,15.24
2023-04-25T15:34:08.736Z,15.09
2023-04-25T15:36:36.562Z,14.83
2023-04-25T15:39:05.285Z,14.32
2023-04-25T15:41:33.138Z,14.32
2023-04-25T15:44:02.396Z,14.27
2023-04-25T15:46:31.270Z,14.29
2023-04-25T15:48:59.320Z,14.52
2023-04-25T15:51:28.492Z,14.52
2023-04-25T15:53:56.513Z,14.28
2023-04-25T15:56:25.129Z,13.82
2023-04-25T15:58:53.394Z,13.55
2023-04-25T16:01:24.241Z,13.51
2023-04-25T16:03:52.361Z,13.36
2023-04-25T16:06:20.492Z,13.69
2023-04-25T16:08:49.670Z,13.76
2023-04-25T16:11:17.440Z,13.25
2023-04-25T16:13:47.866Z,13.02
2023-04-25T16:16:17.186Z,12.92
2023-04-25T16:18:45.026Z,13.04
2023-04-25T16:21:16.991Z,13.12
2023-04-25T16:23:45.180Z,12.92
2023-04-25T16:26:14.345Z,12.64
2023-04-25T16:28:42.139Z,12.61
2023-04-25T16:31:09.996Z,12.51
2023-04-25T16:33:37.870Z,12.44
2023-04-25T16:36:06.476Z,12.50
2023-04-25T16:38:34.229Z,12.54
2023-04-25T16:41:02.140Z,12.58
2023-04-25T16:43:31.755Z,12.65
2023-04-25T16:45:59.522Z,12.64
2023-04-25T16:48:27.428Z,12.57
2023-04-25T16:50:55.564Z,12.35
2023-04-25T16:53:23.744Z,12.17
2023-04-25T16:55:51.556Z,12.17
2023-04-25T16:58:19.359Z,12.34
2023-04-25T17:00:48.576Z,12.43
2023-04-25T17:03:16.859Z,12.38
2023-04-25T17:05:44.754Z,12.27
2023-04-25T17:08:12.554Z,12.22
2023-04-25T17:10:40.358Z,12.16
2023-04-25T17:13:08.264Z,11.99
2023-04-25T17:15:36.079Z,11.72
2023-04-25T17:18:05.894Z,11.62
2023-04-25T17:20:33.837Z,11.66
2023-04-25T17:23:02.233Z,11.37
2023-04-25T17:25:30.260Z,11.46
2023-04-25T17:27:58.034Z,11.67
2023-04-25T17:30:26.787Z,11.67
2023-04-25T17:32:54.706Z,11.59
2023-04-25T17:35:24.595Z,11.62
2023-04-25T17:37:52.533Z,11.60
2023-04-25T17:40:20.893Z,11.60
2023-04-25T17:42:48.678Z,11.62
2023-04-25T17:45:16.537Z,11.58
2023-04-25T17:47:44.357Z,11.57
2023-04-25T17:50:12.665Z,11.46
2023-04-25T17:52:48.492Z,11.41
2023-04-25T17:55:23.272Z,11.37
2023-04-25T17:57:58.974Z,11.08
2023-04-25T18:00:27.834Z,11.00
2023-04-25T18:02:55.705Z,10.90
2023-04-25T18:05:23.586Z,10.68
2023-04-25T18:07:52.816Z,10.51
2023-04-25T18:10:21.234Z,10.56
2023-04-25T18:12:50.448Z,10.49
2023-04-25T18:15:18.510Z,10.35
2023-04-25T18:17:46.362Z,10.33
2023-04-25T18:20:16.500Z,10.50
2023-04-25T18:22:45.459Z,10.62
2023-04-25T18:25:15.341Z,10.49
2023-04-25T18:27:43.428Z,10.44
2023-04-25T18:30:12.619Z,10.37
2023-04-25T18:32:40.508Z,10.39
2023-04-25T18:35:10.059Z,10.27
2023-04-25T18:37:39.644Z,10.22
2023-04-25T18:40:12.884Z,10.13
2023-04-25T18:42:42.047Z,10.09
2023-04-25T18:45:11.053Z,10.09
2023-04-25T18:47:38.895Z,9.99
2023-04-25T18:50:08.182Z,10.01
2023-04-25T18:52:35.986Z,9.93
2023-04-25T18:55:03.858Z,9.75
2023-04-25T18:57:31.634Z,9.67
2023-04-25T19:00:05.157Z,9.60
2023-04-25T19:02:33.183Z,9.49
2023-04-25T19:05:01.471Z,9.49
2023-04-25T19:07:30.826Z,9.44
2023-04-25T19:09:58.589Z,9.31
2023-04-25T19:13:02.230Z,9.33
2023-04-25T19:15:40.732Z,9.28
2023-04-25T19:18:12.290Z,9.11
2023-04-25T19:20:41.324Z,9.12
2023-04-25T19:23:10.490Z,9.06
2023-04-25T19:25:38.326Z,9.04
2023-04-25T19:28:07.729Z,9.13
2023-04-25T19:30:36.874Z,9.14
2023-04-25T19:33:04.945Z,9.18
2023-04-25T19:35:33.308Z,9.15
2023-04-25T19:38:11.345Z,9.06
2023-04-25T19:40:40.374Z,9.10
2023-04-25T19:43:09.559Z,8.95
2023-04-25T19:45:39.399Z,8.99
2023-04-25T19:48:10.221Z,8.90
2023-04-25T19:50:38.158Z,8.89
2023-04-25T19:53:05.938Z,8.79
2023-04-25T19:55:33.685Z,8.71
2023-04-25T19:58:01.814Z,8.63
2023-04-25T20:00:29.651Z,8.65
2023-04-25T20:02:58.923Z,8.66
2023-04-25T20:05:27.042Z,8.61
2023-04-25T20:07:54.818Z,8.57
2023-04-25T20:10:22.885Z,8.48
2023-04-25T20:12:50.711Z,8.39
2023-04-25T20:15:19.124Z,8.28
2023-04-25T20:17:47.252Z,8.18
2023-04-25T20:20:17.378Z,8.19
2023-04-25T20:22:45.197Z,8.21
2023-04-25T20:25:13.549Z,8.15
2023-04-25T20:27:41.311Z,8.15
2023-04-25T20:30:11.895Z,8.14
2023-04-25T20:32:39.771Z,8.08
2023-04-25T20:35:10.027Z,8.04
2023-04-25T20:37:39.250Z,7.97
2023-04-25T20:40:09.621Z,7.88
2023-04-25T20:42:38.207Z,7.86
2023-04-25T20:45:12.315Z,7.80
2023-04-25T20:47:40.918Z,7.77
2023-04-25T20:50:10.922Z,7.77
2023-04-25T20:52:40.159Z,7.73
2023-04-25T20:55:10.754Z,7.67
2023-04-25T20:57:38.654Z,7.60
2023-04-25T21:00:13.949Z,7.54
2023-04-25T21:02:42.309Z,7.47
2023-04-25T21:05:11.211Z,7.39
2023-04-25T21:07:40.388Z,7.34
2023-04-25T21:10:08.778Z,7.28
2023-04-25T21:12:36.651Z,7.20
2023-04-25T21:15:04.922Z,7.18
2023-04-25T21:17:32.722Z,7.14
2023-04-25T21:20:00.560Z,7.11
2023-04-25T21:22:28.444Z,7.05
2023-04-25T21:25:04.150Z,7.01
2023-04-25T21:27:31.926Z,6.97
2023-04-25T21:29:59.717Z,6.92
2023-04-25T21:32:27.959Z,6.86
2023-04-25T21:34:55.764Z,6.79
2023-04-25T21:37:23.551Z,6.75
2023-04-25T21:39:51.439Z,6.73
2023-04-25T21:42:20.655Z,6.72
2023-04-25T21:44:48.399Z,6.67
2023-04-25T21:47:16.802Z,6.61
2023-04-25T21:49:44.619Z,6.55
2023-04-25T21:52:12.490Z,6.51
2023-04-25T21:54:40.228Z,6.48
2023-04-25T21:57:08.033Z,6.46
2023-04-25T21:59:37.175Z,6.41
2023-04-25T22:02:05.061Z,6.41
2023-04-25T22:04:33.204Z,6.36
2023-04-25T22:07:01.150Z,6.33
2023-04-25T22:09:29.165Z,6.28
2023-04-25T22:11:58.583Z,6.24
2023-04-25T22:14:26.680Z,6.21
2023-04-25T22:16:56.007Z,6.17
2023-04-25T22:19:23.832Z,6.16
2023-04-25T22:21:51.882Z,6.12
2023-04-25T22:24:20.907Z,6.09
2023-04-25T22:26:49.299Z,6.05
2023-04-25T22:29:17.113Z,6.03
2023-04-25T22:31:44.933Z,5.99
2023-04-25T22:34:14.786Z,5.94
2023-04-25T22:36:42.570Z,5.83
2023-04-25T22:39:10.487Z,5.78
2023-04-25T22:41:38.711Z,5.77
2023-04-25T22:44:06.577Z,5.78
2023-04-25T22:46:34.339Z,5.74
2023-04-25T22:49:02.671Z,5.70
2023-04-25T22:51:32.087Z,5.65
2023-04-25T22:54:00.710Z,5.61
2023-04-25T22:56:31.222Z,5.57
2023-04-25T22:58:58.980Z,5.52
2023-04-25T23:01:28.911Z,5.48
2023-04-25T23:03:57.752Z,5.45
2023-04-25T23:06:26.409Z,5.38
2023-04-25T23:08:55.677Z,5.38
2023-04-25T23:11:23.822Z,5.36
2023-04-25T23:13:51.648Z,5.33
2023-04-25T23:16:19.452Z,5.30
2023-04-25T23:18:47.276Z,5.28
2023-04-25T23:21:15.729Z,5.23
2023-04-25T23:23:43.585Z,5.17
2023-04-25T23:26:12.963Z,5.15
2023-04-25T23:28:42.005Z,5.08
2023-04-25T23:31:11.702Z,5.07
2023-04-25T23:33:39.851Z,5.03
2023-04-25T23:36:08.440Z,4.99
2023-04-25T23:38:36.247Z,5.00
2023-04-25T23:41:04.006Z,5.02
2023-04-25T23:43:33.127Z,5.03
2023-04-25T23:46:01.039Z,5.07
2023-04-25T23:48:28.820Z,5.05
2023-04-25T23:50:56.683Z,5.07
2023-04-25T23:53:24.532Z,5.08
2023-04-25T23:55:52.309Z,5.06
2023-04-25T23:58:20.034Z,5.08
